sensor_id;sensor_type;location;lat;lon;timestamp;pressure;altitude;pressure_sealevel;temperature;humidity
46111;BME280;31849;55.992;37.252;2023-04-25T00:03:37;98857.56;;;12.76;32.45
46111;BME280;31849;55.992;37.252;2023-04-25T00:08:42;98844.63;;;12.72;32.70
46111;BME280;31849;55.992;37.252;2023-04-25T00:13:47;98848.34;;;12.60;32.77
46111;BME280;31849;55.992;37.252;2023-04-25T00:18:52;98849.41;;;12.49;33.09
46111;BME280;31849;55.992;37.252;2023-04-25T00:23:55;98851.41;;;12.38;33.82
46111;BME280;31849;55.992;37.252;2023-04-25T00:29:00;98845.81;;;12.11;34.37
46111;BME280;31849;55.992;37.252;2023-04-25T00:34:04;98857.50;;;11.87;34.45
46111;BME280;31849;55.992;37.252;2023-04-25T00:39:07;98855.94;;;11.77;34.33
46111;BME280;31849;55.992;37.252;2023-04-25T00:44:12;98857.97;;;11.61;34.93
46111;BME280;31849;55.992;37.252;2023-04-25T00:49:18;98871.47;;;11.29;35.43
46111;BME280;31849;55.992;37.252;2023-04-25T00:54:22;98876.97;;;11.05;35.97
46111;BME280;31849;55.992;37.252;2023-04-25T00:59:27;98881.50;;;10.91;36.56
46111;BME280;31849;55.992;37.252;2023-04-25T01:04:32;98892.06;;;10.79;36.83
46111;BME280;31849;55.992;37.252;2023-04-25T01:09:35;98881.78;;;10.71;36.94
46111;BME280;31849;55.992;37.252;2023-04-25T01:14:40;98879.19;;;10.69;37.37
46111;BME280;31849;55.992;37.252;2023-04-25T01:19:44;98882.81;;;10.58;37.97
46111;BME280;31849;55.992;37.252;2023-04-25T01:24:49;98888.06;;;10.53;38.40
46111;BME280;31849;55.992;37.252;2023-04-25T01:29:54;98888.13;;;10.47;38.03
46111;BME280;31849;55.992;37.252;2023-04-25T01:34:57;98875.19;;;10.41;38.50
46111;BME280;31849;55.992;37.252;2023-04-25T01:40:03;98880.31;;;10.48;38.49
46111;BME280;31849;55.992;37.252;2023-04-25T01:45:08;98881.00;;;10.63;38.44
46111;BME280;31849;55.992;37.252;2023-04-25T01:50:12;98885.34;;;10.62;38.29
46111;BME280;31849;55.992;37.252;2023-04-25T01:55:17;98891.34;;;10.66;38.78
46111;BME280;31849;55.992;37.252;2023-04-25T02:00:21;98892.19;;;10.71;38.74
46111;BME280;31849;55.992;37.252;2023-04-25T02:05:24;98887.81;;;10.73;38.47
46111;BME280;31849;55.992;37.252;2023-04-25T02:10:29;98881.59;;;10.85;38.63
46111;BME280;31849;55.992;37.252;2023-04-25T02:15:33;98872.84;;;10.92;38.57
46111;BME280;31849;55.992;37.252;2023-04-25T02:20:58;98880.47;;;11.04;38.75
46111;BME280;31849;55.992;37.252;2023-04-25T02:26:04;98869.09;;;11.12;38.95
46111;BME280;31849;55.992;37.252;2023-04-25T02:31:08;98868.16;;;11.17;38.98
46111;BME280;31849;55.992;37.252;2023-04-25T02:36:12;98872.38;;;11.26;38.99
46111;BME280;31849;55.992;37.252;2023-04-25T02:41:17;98867.81;;;11.40;39.07
46111;BME280;31849;55.992;37.252;2023-04-25T02:46:20;98873.69;;;11.52;38.75
46111;BME280;31849;55.992;37.252;2023-04-25T02:51:39;98865.59;;;11.70;38.47
46111;BME280;31849;55.992;37.252;2023-04-25T02:56:43;98867.06;;;11.87;38.61
46111;BME280;31849;55.992;37.252;2023-04-25T03:01:47;98866.13;;;11.91;39.65
46111;BME280;31849;55.992;37.252;2023-04-25T03:06:51;98866.38;;;11.75;39.64
46111;BME280;31849;55.992;37.252;2023-04-25T03:11:56;98870.59;;;11.83;39.66
46111;BME280;31849;55.992;37.252;2023-04-25T03:17:00;98879.28;;;11.82;39.80
46111;BME280;31849;55.992;37.252;2023-04-25T03:22:03;98871.41;;;11.88;39.21
46111;BME280;31849;55.992;37.252;2023-04-25T03:27:08;98876.47;;;11.97;39.91
46111;BME280;31849;55.992;37.252;2023-04-25T03:32:12;98889.97;;;12.19;39.48
46111;BME280;31849;55.992;37.252;2023-04-25T03:37:16;98879.53;;;12.21;39.40
46111;BME280;31849;55.992;37.252;2023-04-25T03:42:21;98886.16;;;12.39;40.06
46111;BME280;31849;55.992;37.252;2023-04-25T03:47:25;98899.59;;;12.62;39.29
46111;BME280;31849;55.992;37.252;2023-04-25T03:52:29;98883.22;;;12.98;38.94
46111;BME280;31849;55.992;37.252;2023-04-25T03:57:34;98880.59;;;15.05;35.81
46111;BME280;31849;55.992;37.252;2023-04-25T04:02:37;98876.94;;;17.17;32.74
46111;BME280;31849;55.992;37.252;2023-04-25T04:07:44;98865.16;;;18.54;31.11
46111;BME280;31849;55.992;37.252;2023-04-25T04:12:48;98851.22;;;20.52;28.17
46111;BME280;31849;55.992;37.252;2023-04-25T04:17:52;98844.31;;;22.38;26.10
46111;BME280;31849;55.992;37.252;2023-04-25T04:22:56;98838.59;;;24.75;23.65
46111;BME280;31849;55.992;37.252;2023-04-25T04:28:01;98842.50;;;26.27;21.71
46111;BME280;31849;55.992;37.252;2023-04-25T04:33:04;98848.47;;;30.39;17.57
46111;BME280;31849;55.992;37.252;2023-04-25T04:38:09;98853.06;;;30.09;17.58
46111;BME280;31849;55.992;37.252;2023-04-25T04:43:15;98848.06;;;32.87;15.39
46111;BME280;31849;55.992;37.252;2023-04-25T04:48:20;98839.16;;;35.01;13.74
46111;BME280;31849;55.992;37.252;2023-04-25T04:53:25;98834.75;;;35.86;12.42
46111;BME280;31849;55.992;37.252;2023-04-25T04:58:30;98832.91;;;36.69;12.87
46111;BME280;31849;55.992;37.252;2023-04-25T05:03:33;98836.06;;;37.39;11.36
46111;BME280;31849;55.992;37.252;2023-04-25T05:08:37;98833.94;;;36.83;11.17
46111;BME280;31849;55.992;37.252;2023-04-25T05:13:42;98824.63;;;37.80;10.95
46111;BME280;31849;55.992;37.252;2023-04-25T05:18:46;98825.91;;;38.13;9.91
46111;BME280;31849;55.992;37.252;2023-04-25T05:23:50;98823.00;;;39.39;9.51
46111;BME280;31849;55.992;37.252;2023-04-25T05:28:55;98821.84;;;38.59;9.26
46111;BME280;31849;55.992;37.252;2023-04-25T05:33:59;98817.38;;;38.16;10.13
46111;BME280;31849;55.992;37.252;2023-04-25T05:39:02;98829.78;;;39.97;8.90
46111;BME280;31849;55.992;37.252;2023-04-25T05:44:08;98825.53;;;38.86;9.48
46111;BME280;31849;55.992;37.252;2023-04-25T05:49:11;98823.63;;;37.88;9.64
46111;BME280;31849;55.992;37.252;2023-04-25T05:54:15;98821.50;;;39.23;9.24
46111;BME280;31849;55.992;37.252;2023-04-25T05:59:20;98828.06;;;38.87;9.21
46111;BME280;31849;55.992;37.252;2023-04-25T06:04:24;98824.84;;;38.70;8.92
46111;BME280;31849;55.992;37.252;2023-04-25T06:09:28;98825.13;;;38.47;9.93
46111;BME280;31849;55.992;37.252;2023-04-25T06:14:33;98825.16;;;37.97;9.53
46111;BME280;31849;55.992;37.252;2023-04-25T06:19:37;98816.13;;;40.31;9.03
46111;BME280;31849;55.992;37.252;2023-04-25T06:24:41;98815.94;;;40.19;8.59
46111;BME280;31849;55.992;37.252;2023-04-25T06:29:46;98804.81;;;40.47;8.74
46111;BME280;31849;55.992;37.252;2023-04-25T06:34:49;98817.59;;;39.53;9.54
46111;BME280;31849;55.992;37.252;2023-04-25T06:39:53;98807.25;;;41.21;8.70
46111;BME280;31849;55.992;37.252;2023-04-25T06:44:58;98806.59;;;41.32;8.29
46111;BME280;31849;55.992;37.252;2023-04-25T06:50:01;98804.88;;;41.63;8.54
46111;BME280;31849;55.992;37.252;2023-04-25T06:55:06;98803.50;;;40.63;8.63
46111;BME280;31849;55.992;37.252;2023-04-25T07:00:12;98807.44;;;42.52;7.66
46111;BME280;31849;55.992;37.252;2023-04-25T07:05:16;98800.44;;;43.42;7.04
46111;BME280;31849;55.992;37.252;2023-04-25T07:10:20;98789.41;;;44.96;6.24
46111;BME280;31849;55.992;37.252;2023-04-25T07:15:25;98798.59;;;44.02;6.77
46111;BME280;31849;55.992;37.252;2023-04-25T07:20:28;98799.00;;;43.51;6.70
46111;BME280;31849;55.992;37.252;2023-04-25T07:25:33;98802.19;;;42.87;6.99
46111;BME280;31849;55.992;37.252;2023-04-25T07:30:38;98794.53;;;41.72;7.02
46111;BME280;31849;55.992;37.252;2023-04-25T07:35:42;98790.91;;;42.47;6.27
46111;BME280;31849;55.992;37.252;2023-04-25T07:40:45;98786.97;;;41.99;6.41
46111;BME280;31849;55.992;37.252;2023-04-25T07:45:50;98787.03;;;43.22;5.98
46111;BME280;31849;55.992;37.252;2023-04-25T07:50:54;98783.78;;;42.02;6.59
46111;BME280;31849;55.992;37.252;2023-04-25T07:55:57;98775.41;;;41.46;6.93
46111;BME280;31849;55.992;37.252;2023-04-25T08:01:02;98775.09;;;38.70;7.89
46111;BME280;31849;55.992;37.252;2023-04-25T08:06:06;98763.13;;;34.25;10.23
46111;BME280;31849;55.992;37.252;2023-04-25T08:11:10;98764.75;;;35.45;9.58
46111;BME280;31849;55.992;37.252;2023-04-25T08:16:15;98758.94;;;36.09;9.37
46111;BME280;31849;55.992;37.252;2023-04-25T08:21:18;98762.16;;;34.01;10.33
46111;BME280;31849;55.992;37.252;2023-04-25T08:26:22;98757.44;;;31.38;12.00
46111;BME280;31849;55.992;37.252;2023-04-25T08:31:27;98743.78;;;29.83;13.25
46111;BME280;31849;55.992;37.252;2023-04-25T08:36:31;98745.88;;;28.82;13.83
46111;BME280;31849;55.992;37.252;2023-04-25T08:41:41;98736.47;;;27.95;14.66
46111;BME280;31849;55.992;37.252;2023-04-25T08:46:48;98750.22;;;26.26;16.28
46111;BME280;31849;55.992;37.252;2023-04-25T08:51:53;98746.78;;;25.55;16.72
46111;BME280;31849;55.992;37.252;2023-04-25T08:57:01;98738.59;;;25.09;17.30
46111;BME280;31849;55.992;37.252;2023-04-25T09:02:08;98735.06;;;24.48;18.26
46111;BME280;31849;55.992;37.252;2023-04-25T09:07:13;98739.00;;;22.97;20.19
46111;BME280;31849;55.992;37.252;2023-04-25T09:12:21;98734.63;;;23.11;20.39
46111;BME280;31849;55.992;37.252;2023-04-25T09:17:25;98737.84;;;23.01;20.37
46111;BME280;31849;55.992;37.252;2023-04-25T09:22:30;98730.03;;;22.86;20.95
46111;BME280;31849;55.992;37.252;2023-04-25T09:27:34;98734.25;;;22.61;21.23
46111;BME280;31849;55.992;37.252;2023-04-25T09:32:39;98729.00;;;22.32;21.65
46111;BME280;31849;55.992;37.252;2023-04-25T09:37:43;98710.47;;;22.03;21.89
46111;BME280;31849;55.992;37.252;2023-04-25T09:42:46;98718.94;;;22.66;21.51
46111;BME280;31849;55.992;37.252;2023-04-25T09:47:55;98720.13;;;22.33;21.57
46111;BME280;31849;55.992;37.252;2023-04-25T09:53:03;98706.53;;;22.66;21.03
46111;BME280;31849;55.992;37.252;2023-04-25T09:58:08;98692.63;;;22.90;20.72
46111;BME280;31849;55.992;37.252;2023-04-25T10:03:15;98701.16;;;23.23;21.18
46111;BME280;31849;55.992;37.252;2023-04-25T10:08:21;98702.25;;;23.06;21.46
46111;BME280;31849;55.992;37.252;2023-04-25T10:13:26;98702.59;;;23.14;21.35
46111;BME280;31849;55.992;37.252;2023-04-25T10:18:32;98703.16;;;22.50;21.96
46111;BME280;31849;55.992;37.252;2023-04-25T10:23:36;98706.66;;;22.07;22.86
46111;BME280;31849;55.992;37.252;2023-04-25T10:28:55;98695.94;;;21.21;24.38
46111;BME280;31849;55.992;37.252;2023-04-25T10:34:00;98695.38;;;21.16;24.58
46111;BME280;31849;55.992;37.252;2023-04-25T10:39:05;98690.75;;;20.89;24.27
46111;BME280;31849;55.992;37.252;2023-04-25T10:44:10;98680.81;;;21.08;24.03
46111;BME280;31849;55.992;37.252;2023-04-25T10:49:32;98667.47;;;20.80;24.71
46111;BME280;31849;55.992;37.252;2023-04-25T10:54:40;98674.06;;;21.03;25.07
46111;BME280;31849;55.992;37.252;2023-04-25T10:59:44;98666.88;;;21.51;24.03
46111;BME280;31849;55.992;37.252;2023-04-25T11:04:49;98652.00;;;22.21;23.14
46111;BME280;31849;55.992;37.252;2023-04-25T11:09:54;98641.28;;;22.51;23.21
46111;BME280;31849;55.992;37.252;2023-04-25T11:15:02;98635.38;;;22.60;23.06
46111;BME280;31849;55.992;37.252;2023-04-25T11:20:08;98625.94;;;22.56;23.22
46111;BME280;31849;55.992;37.252;2023-04-25T11:25:14;98615.81;;;22.21;23.73
46111;BME280;31849;55.992;37.252;2023-04-25T11:30:19;98611.66;;;22.32;23.78
46111;BME280;31849;55.992;37.252;2023-04-25T11:35:25;98606.84;;;22.51;22.66
46111;BME280;31849;55.992;37.252;2023-04-25T11:40:30;98615.75;;;22.50;22.64
46111;BME280;31849;55.992;37.252;2023-04-25T11:45:34;98597.78;;;22.13;22.75
46111;BME280;31849;55.992;37.252;2023-04-25T11:50:41;98598.03;;;22.09;22.86
46111;BME280;31849;55.992;37.252;2023-04-25T11:55:45;98578.66;;;22.08;22.76
46111;BME280;31849;55.992;37.252;2023-04-25T12:00:48;98572.94;;;22.43;22.40
46111;BME280;31849;55.992;37.252;2023-04-25T12:06:02;98570.50;;;21.84;22.96
46111;BME280;31849;55.992;37.252;2023-04-25T12:11:20;98565.50;;;21.65;23.37
46111;BME280;31849;55.992;37.252;2023-04-25T12:16:24;98555.88;;;22.06;23.38
46111;BME280;31849;55.992;37.252;2023-04-25T12:21:29;98543.84;;;22.69;22.87
46111;BME280;31849;55.992;37.252;2023-04-25T12:26:47;98538.97;;;22.36;22.98
46111;BME280;31849;55.992;37.252;2023-04-25T12:31:51;98526.34;;;22.66;22.64
46111;BME280;31849;55.992;37.252;2023-04-25T12:36:57;98518.63;;;22.63;23.01
46111;BME280;31849;55.992;37.252;2023-04-25T12:42:01;98514.63;;;23.09;22.37
46111;BME280;31849;55.992;37.252;2023-04-25T12:47:08;98507.63;;;23.08;22.04
46111;BME280;31849;55.992;37.252;2023-04-25T12:52:14;98500.41;;;23.49;21.71
46111;BME280;31849;55.992;37.252;2023-04-25T12:57:17;98481.53;;;23.53;21.32
46111;BME280;31849;55.992;37.252;2023-04-25T13:02:21;98482.97;;;23.21;21.88
46111;BME280;31849;55.992;37.252;2023-04-25T13:07:26;98476.38;;;23.13;21.78
46111;BME280;31849;55.992;37.252;2023-04-25T13:12:29;98470.75;;;22.92;22.06
46111;BME280;31849;55.992;37.252;2023-04-25T13:17:33;98471.13;;;22.20;22.98
46111;BME280;31849;55.992;37.252;2023-04-25T13:22:39;98461.63;;;22.30;23.14
46111;BME280;31849;55.992;37.252;2023-04-25T13:27:42;98461.56;;;22.32;22.88
46111;BME280;31849;55.992;37.252;2023-04-25T13:32:46;98464.06;;;21.93;23.21
46111;BME280;31849;55.992;37.252;2023-04-25T13:37:51;98456.69;;;22.11;23.03
46111;BME280;31849;55.992;37.252;2023-04-25T13:42:55;98463.03;;;22.09;22.97
46111;BME280;31849;55.992;37.252;2023-04-25T13:47:59;98448.53;;;22.02;23.15
46111;BME280;31849;55.992;37.252;2023-04-25T13:53:04;98442.28;;;22.03;23.30
46111;BME280;31849;55.992;37.252;2023-04-25T13:58:07;98435.19;;;21.76;23.30
46111;BME280;31849;55.992;37.252;2023-04-25T14:03:11;98430.22;;;22.11;22.78
46111;BME280;31849;55.992;37.252;2023-04-25T14:08:17;98427.78;;;22.08;22.73
46111;BME280;31849;55.992;37.252;2023-04-25T14:13:20;98418.81;;;21.84;23.09
46111;BME280;31849;55.992;37.252;2023-04-25T14:18:25;98421.84;;;21.36;23.87
46111;BME280;31849;55.992;37.252;2023-04-25T14:23:30;98412.69;;;21.27;24.37
46111;BME280;31849;55.992;37.252;2023-04-25T14:28:33;98405.66;;;21.13;24.13
46111;BME280;31849;55.992;37.252;2023-04-25T14:33:37;98403.59;;;21.04;24.34
46111;BME280;31849;55.992;37.252;2023-04-25T14:38:45;98404.91;;;20.82;25.09
46111;BME280;31849;55.992;37.252;2023-04-25T14:43:48;98395.78;;;20.43;26.13
46111;BME280;31849;55.992;37.252;2023-04-25T14:48:53;98387.09;;;20.41;26.22
46111;BME280;31849;55.992;37.252;2023-04-25T14:53:59;98378.56;;;20.52;26.37
46111;BME280;31849;55.992;37.252;2023-04-25T14:59:03;98375.44;;;20.60;26.40
46111;BME280;31849;55.992;37.252;2023-04-25T15:04:06;98363.75;;;20.78;26.16
46111;BME280;31849;55.992;37.252;2023-04-25T15:09:11;98354.03;;;20.93;26.12
46111;BME280;31849;55.992;37.252;2023-04-25T15:14:16;98342.13;;;21.00;25.64
46111;BME280;31849;55.992;37.252;2023-04-25T15:19:20;98341.31;;;20.85;25.76
46111;BME280;31849;55.992;37.252;2023-04-25T15:24:25;98328.28;;;20.68;25.51
46111;BME280;31849;55.992;37.252;2023-04-25T15:29:29;98321.78;;;20.45;25.42
46111;BME280;31849;55.992;37.252;2023-04-25T15:34:32;98311.31;;;20.43;25.29
46111;BME280;31849;55.992;37.252;2023-04-25T15:39:38;98307.72;;;20.44;25.40
46111;BME280;31849;55.992;37.252;2023-04-25T15:44:42;98302.16;;;20.49;25.35
46111;BME280;31849;55.992;37.252;2023-04-25T15:49:45;98295.75;;;20.38;25.28
46111;BME280;31849;55.992;37.252;2023-04-25T15:54:50;98285.19;;;20.24;25.52
46111;BME280;31849;55.992;37.252;2023-04-25T15:59:54;98282.00;;;20.19;25.46
46111;BME280;31849;55.992;37.252;2023-04-25T16:04:58;98279.00;;;19.95;26.03
46111;BME280;31849;55.992;37.252;2023-04-25T16:10:03;98277.13;;;19.66;26.01
46111;BME280;31849;55.992;37.252;2023-04-25T16:15:08;98271.81;;;19.52;26.44
46111;BME280;31849;55.992;37.252;2023-04-25T16:20:14;98259.59;;;19.51;26.62
46111;BME280;31849;55.992;37.252;2023-04-25T16:25:19;98259.94;;;19.45;26.83
46111;BME280;31849;55.992;37.252;2023-04-25T16:30:24;98259.38;;;19.24;27.15
46111;BME280;31849;55.992;37.252;2023-04-25T16:35:27;98263.56;;;19.12;27.17
46111;BME280;31849;55.992;37.252;2023-04-25T16:40:34;98260.09;;;18.95;27.71
46111;BME280;31849;55.992;37.252;2023-04-25T16:45:38;98253.09;;;18.78;27.69
46111;BME280;31849;55.992;37.252;2023-04-25T16:50:42;98257.16;;;18.52;28.14
46111;BME280;31849;55.992;37.252;2023-04-25T16:55:47;98257.63;;;18.27;28.75
46111;BME280;31849;55.992;37.252;2023-04-25T17:00:50;98254.03;;;18.12;29.16
46111;BME280;31849;55.992;37.252;2023-04-25T17:05:54;98257.91;;;18.05;29.00
46111;BME280;31849;55.992;37.252;2023-04-25T17:11:00;98248.41;;;17.85;29.37
46111;BME280;31849;55.992;37.252;2023-04-25T17:16:04;98252.59;;;17.71;29.88
46111;BME280;31849;55.992;37.252;2023-04-25T17:21:08;98246.25;;;17.58;29.62
46111;BME280;31849;55.992;37.252;2023-04-25T17:26:13;98247.50;;;17.51;30.41
46111;BME280;31849;55.992;37.252;2023-04-25T17:31:17;98232.72;;;17.48;30.49
46111;BME280;31849;55.992;37.252;2023-04-25T17:36:21;98238.88;;;17.47;31.08
46111;BME280;31849;55.992;37.252;2023-04-25T17:41:27;98232.94;;;17.44;31.41
46111;BME280;31849;55.992;37.252;2023-04-25T17:46:30;98229.00;;;17.35;31.60
46111;BME280;31849;55.992;37.252;2023-04-25T17:51:34;98222.66;;;17.21;31.93
46111;BME280;31849;55.992;37.252;2023-04-25T17:56:39;98216.88;;;17.15;32.24
46111;BME280;31849;55.992;37.252;2023-04-25T18:01:43;98218.00;;;17.09;32.39
46111;BME280;31849;55.992;37.252;2023-04-25T18:06:49;98211.88;;;17.09;32.52
46111;BME280;31849;55.992;37.252;2023-04-25T18:11:54;98205.94;;;17.05;32.84
46111;BME280;31849;55.992;37.252;2023-04-25T18:16:57;98205.28;;;17.01;32.94
46111;BME280;31849;55.992;37.252;2023-04-25T18:22:01;98204.31;;;17.02;33.00
46111;BME280;31849;55.992;37.252;2023-04-25T18:27:06;98224.00;;;16.75;33.17
46111;BME280;31849;55.992;37.252;2023-04-25T18:32:10;98226.13;;;16.66;33.38
46111;BME280;31849;55.992;37.252;2023-04-25T18:37:13;98211.97;;;16.70;33.21
46111;BME280;31849;55.992;37.252;2023-04-25T18:42:19;98214.00;;;16.64;34.13
46111;BME280;31849;55.992;37.252;2023-04-25T18:47:23;98196.91;;;16.55;34.40
46111;BME280;31849;55.992;37.252;2023-04-25T18:52:27;98206.56;;;16.55;35.61
46111;BME280;31849;55.992;37.252;2023-04-25T18:57:32;98207.34;;;16.57;36.28
46111;BME280;31849;55.992;37.252;2023-04-25T19:02:35;98199.91;;;16.47;37.39
46111;BME280;31849;55.992;37.252;2023-04-25T19:07:39;98199.34;;;16.41;38.09
46111;BME280;31849;55.992;37.252;2023-04-25T19:12:44;98190.53;;;16.42;38.45
46111;BME280;31849;55.992;37.252;2023-04-25T19:17:50;98182.66;;;16.42;38.49
46111;BME280;31849;55.992;37.252;2023-04-25T19:22:54;98180.84;;;16.44;38.55
46111;BME280;31849;55.992;37.252;2023-04-25T19:27:59;98180.69;;;16.47;38.76
46111;BME280;31849;55.992;37.252;2023-04-25T19:33:03;98164.97;;;16.47;38.89
46111;BME280;31849;55.992;37.252;2023-04-25T19:38:07;98166.38;;;16.35;39.40
46111;BME280;31849;55.992;37.252;2023-04-25T19:43:12;98168.28;;;16.31;39.67
46111;BME280;31849;55.992;37.252;2023-04-25T19:48:15;98171.56;;;16.37;39.52
46111;BME280;31849;55.992;37.252;2023-04-25T19:53:19;98166.66;;;16.48;39.38
46111;BME280;31849;55.992;37.252;2023-04-25T19:58:24;98162.13;;;16.51;39.23
46111;BME280;31849;55.992;37.252;2023-04-25T20:03:28;98142.13;;;16.30;39.69
46111;BME280;31849;55.992;37.252;2023-04-25T20:08:33;98153.50;;;16.30;40.16
46111;BME280;31849;55.992;37.252;2023-04-25T20:13:38;98152.00;;;16.25;40.44
46111;BME280;31849;55.992;37.252;2023-04-25T20:18:42;98151.22;;;16.23;40.44
46111;BME280;31849;55.992;37.252;2023-04-25T20:23:45;98139.59;;;16.09;40.87
46111;BME280;31849;55.992;37.252;2023-04-25T20:28:50;98128.69;;;16.18;40.52
46111;BME280;31849;55.992;37.252;2023-04-25T20:33:54;98124.06;;;16.05;41.00
46111;BME280;31849;55.992;37.252;2023-04-25T20:38:58;98118.81;;;16.05;40.92
46111;BME280;31849;55.992;37.252;2023-04-25T20:44:03;98121.59;;;16.21;40.90
46111;BME280;31849;55.992;37.252;2023-04-25T20:49:08;98108.41;;;16.22;41.15
46111;BME280;31849;55.992;37.252;2023-04-25T20:54:11;98088.47;;;16.18;41.23
46111;BME280;31849;55.992;37.252;2023-04-25T20:59:16;98098.63;;;16.26;41.31
46111;BME280;31849;55.992;37.252;2023-04-25T21:04:20;98086.59;;;16.03;41.46
46111;BME280;31849;55.992;37.252;2023-04-25T21:09:24;98080.34;;;16.05;41.20
46111;BME280;31849;55.992;37.252;2023-04-25T21:14:29;98070.25;;;15.97;41.62
46111;BME280;31849;55.992;37.252;2023-04-25T21:19:32;98062.94;;;15.85;42.34
46111;BME280;31849;55.992;37.252;2023-04-25T21:24:36;98058.78;;;15.81;42.62
46111;BME280;31849;55.992;37.252;2023-04-25T21:29:41;98048.06;;;15.86;42.50
46111;BME280;31849;55.992;37.252;2023-04-25T21:34:44;98042.56;;;15.71;43.00
46111;BME280;31849;55.992;37.252;2023-04-25T21:39:48;98041.38;;;15.59;42.83
46111;BME280;31849;55.992;37.252;2023-04-25T21:44:53;98034.34;;;15.60;42.85
46111;BME280;31849;55.992;37.252;2023-04-25T21:49:57;98030.88;;;15.40;43.34
46111;BME280;31849;55.992;37.252;2023-04-25T21:55:00;98025.19;;;15.50;43.27
46111;BME280;31849;55.992;37.252;2023-04-25T22:00:07;98021.75;;;15.49;43.17
46111;BME280;31849;55.992;37.252;2023-04-25T22:05:25;98016.44;;;15.51;42.95
46111;BME280;31849;55.992;37.252;2023-04-25T22:10:30;98008.78;;;15.46;43.23
46111;BME280;31849;55.992;37.252;2023-04-25T22:15:35;98003.63;;;15.44;43.66
46111;BME280;31849;55.992;37.252;2023-04-25T22:20:39;97999.66;;;15.36;44.20
46111;BME280;31849;55.992;37.252;2023-04-25T22:25:42;97996.44;;;15.29;44.57
46111;BME280;31849;55.992;37.252;2023-04-25T22:30:48;97983.75;;;15.01;45.17
46111;BME280;31849;55.992;37.252;2023-04-25T22:35:52;97982.97;;;14.99;45.46
46111;BME280;31849;55.992;37.252;2023-04-25T22:40:55;97975.88;;;15.01;45.78
46111;BME280;31849;55.992;37.252;2023-04-25T22:46:00;97968.16;;;14.98;45.67
46111;BME280;31849;55.992;37.252;2023-04-25T22:51:04;97967.94;;;14.83;46.56
46111;BME280;31849;55.992;37.252;2023-04-25T22:56:08;97962.53;;;14.67;47.40
46111;BME280;31849;55.992;37.252;2023-04-25T23:01:13;97962.50;;;14.47;48.30
46111;BME280;31849;55.992;37.252;2023-04-25T23:06:20;97952.63;;;14.33;49.09
46111;BME280;31849;55.992;37.252;2023-04-25T23:11:23;97939.56;;;14.33;49.00
46111;BME280;31849;55.992;37.252;2023-04-25T23:16:28;97939.84;;;14.25;50.28
46111;BME280;31849;55.992;37.252;2023-04-25T23:21:32;97934.44;;;14.30;50.70
46111;BME280;31849;55.992;37.252;2023-04-25T23:26:35;97934.44;;;14.30;51.50
46111;BME280;31849;55.992;37.252;2023-04-25T23:31:40;97925.28;;;14.19;51.45
46111;BME280;31849;55.992;37.252;2023-04-25T23:36:45;97925.78;;;14.07;52.20
46111;BME280;31849;55.992;37.252;2023-04-25T23:41:49;97926.47;;;13.90;52.79
46111;BME280;31849;55.992;37.252;2023-04-25T23:46:53;97907.38;;;13.88;53.14
46111;BME280;31849;55.992;37.252;2023-04-25T23:51:57;97915.06;;;13.93;53.62
46111;BME280;31849;55.992;37.252;2023-04-25T23:57:00;97910.38;;;13.79;54.15
